Terminal Aerodrome Forecast
Issued by NWS

Home | Current Version | Previous Version | Text Only | Print | Product List | Glossary On
Versions: 1 2 3 4 5 6 7 8 9 10 11 12 13 14 15 16 17 18 19 20 21 22 23
000
FTAK31 PANC 191303 AAA
TAFACD
TAF AMD
PACD 191303Z 1913/2012 36010KT P6SM VCSH SCT025 BKN035
      TEMPO 1913/1916 4SM -SN BR BKN025=

USA.gov is the U.S. government's official web portal to all federal, state and local government web resources and services.